Tiempo atmosférico en la estación meteorológica de El Paso, Santa Cruz de Tenerife (844 m.)

Fecha
DESCASC
Temp. máxima en grados centígrados (hora)
DESCASC
Temp. mínima en grados centígrados (hora)
DESCASC
Temp. media en grados centígrados
DESCASC
Racha de viento máxima en m/sg (hora)
DESCASC
Velocidad máxima media en intervalos de 10 minutos(hora)
DESCASC
Precipitaciones diarias en mm
DESCASC
Precipitaciones de 00:00 a 06:00 en mm
DESCASC
Precipitaciones de 06:00 a 12:00 en mm
DESCASC
Precipitaciones de 12:00 a 18:00 en mm
DESCASC
Precipitaciones de 18:00 a 24:00 en mm
DESCASC
22-10-2017 19.6 (15:00) 15.5 (22:10) 17.6 17.78 (22:00) 8.89 (22:30) 2 0 0 0.2 1.8
21-10-2017 19.8 (11:40) 15.4 (00:10) 17.6 17.78 (10:50) 7.22 (10:50) 0 0 0 0 0
20-10-2017 21 (10:50) 13 (08:10) 17 11.94 (22:40) 6.67 (22:40) 0 0 0 0 0
19-10-2017 21.4 (11:30) 12.2 (00:00) 16.8 7.22 (16:20) 4.44 (16:20) 0 0 0 0 0
18-10-2017 22.1 (14:40) 10.7 (00:00) 16.4 6.39 (14:50) 3.89 (13:30) 0 0 0 0 0
17-10-2017 23.7 (10:50) 14.3 (00:00) 19 6.11 (15:40) 3.61 (13:00) 0 0 0 0 0
16-10-2017 26.5 (11:20) 18.5 (00:00) 22.5 7.5 (21:50) 3.61 (13:50) 0 0 0 0 0
15-10-2017 29.3 (15:00) 21.6 (00:00) 25.4 8.06 (15:10) 4.44 (17:10) 0 0 0 0 0
14-10-2017 30.2 (14:30) 22 (00:00) 26.1 9.44 (07:30) 4.44 (16:30) 0 0 0 0 0
13-10-2017 31.6 (14:30) 20.7 (00:00) 26.2 7.78 (15:10) 4.72 (14:50) 0 0 0 0 0
12-10-2017 27.7 (15:50) 14 (00:00) 20.9 6.11 (17:00) 3.33 (12:30) 0 0 0 0 0
11-10-2017 22.2 (15:00) 11.1 (00:00) 16.7 6.67 (15:40) 4.17 (14:00) 0 0 0 0 0
10-10-2017 21 (12:10) 11.9 (00:00) 16.4 7.5 (15:30) 3.89 (15:20) 0 0 0 0 0
09-10-2017 21.7 (13:10) 10.6 (00:00) 16.2 8.33 (14:10) 4.72 (14:00) 1.6 0 0 0.8 0.8
08-10-2017 22.2 (14:00) 11 (00:00) 16.6 9.72 (14:40) 4.72 (14:40) 0 0 0 0 0
07-10-2017 20.1 (17:30) 11.3 (00:00) 15.7 7.78 (18:00) 3.61 (18:00) 0 0 0 0 0
06-10-2017 22.4 (14:40) 12.4 (00:00) 17.4 7.5 (15:20) 3.89 (15:30) 0 0 0 0 0
05-10-2017 22.1 (12:40) 12.4 (00:00) 17.3 7.78 (16:20) 4.17 (16:00) 0 0 0 0 0
04-10-2017 23.3 (14:50) 13.1 (00:00) 18.2 6.67 (15:10) 3.89 (15:10) 0 0 0 0 0
03-10-2017 25.4 (11:50) 12.9 (00:00) 19.1 14.17 (07:50) 6.67 (08:40) 0 0 0 0 0
02-10-2017 23 (17:20) 12.8 (00:00) 17.9 11.39 (14:30) 6.67 (12:40) 0 0 0 0 0
01-10-2017 22 (15:20) 16.8 (00:00) 19.4 18.06 (01:50) 9.17 (10:20) 0 0 0 0 0
30-09-2017 22 (15:50) 14.1 (00:00) 18.1 15.83 (17:40) 9.17 (17:40) 0 0 0 0 0
29-09-2017 21.8 (13:30) 13.2 (00:00) 17.5 11.67 (11:40) 6.94 (12:50) 0 0 0 0 0
28-09-2017 26 (13:10) 15.6 (00:00) 20.8 6.39 (13:40) 3.89 (14:40) 0 0 0 0 0
27-09-2017 26 (16:30) 15.6 (00:00) 20.8 11.11 (14:50) 6.67 (14:50) 0 0 0 0 0
26-09-2017 25.5 (12:00) 16.6 (00:00) 21.1 7.22 (14:40) 4.17 (12:20) 0 0 0 0 0
25-09-2017 28.6 (14:50) 19 (00:00) 23.8 11.39 (15:10) 6.39 (15:30) 0 0 0 0 0
24-09-2017 26.6 (17:20) 17 (00:00) 21.8 16.39 (00:30) 10 (00:40) 0 0 0 0 0
23-09-2017 22.8 (22:20) 14.4 (00:00) 18.6 18.89 (02:30) 11.67 (19:00) 0 0 0 0 0

Gráficas

Temp. máximas Temp. mínimas Temp. medias Precipitaciones Rachas de viento máximas Velocidades máximas media en intervalos de 10 minutos

Datos horarios

Fecha y hora oficial Temperatura (ºC) Velocidad del viento (km/h) Dirección del viento Racha (km/h) Dirección de racha Precipitación (mm) Presión (hPa) Tendencia (hPa) Humedad (%)
2017-10-22 23:00:00 15.8 24 Este 58 Este 0 -- -- 84
2017-10-22 22:00:00 15.6 30 Este 64 Este 0.4 -- -- 86
2017-10-22 21:00:00 16.5 24 Este 53 Este 0.2 -- -- 84
2017-10-22 20:00:00 16.7 29 Este 54 Este 0.4 -- -- 88
2017-10-22 19:00:00 17.1 19 Este 45 Este 0.4 -- -- 81
2017-10-22 18:00:00 17.5 14 Este 37 Este 0 -- -- 80
2017-10-22 17:00:00 17.7 19 Este 40 Sudeste 0.2 -- -- 81
2017-10-22 16:00:00 18.7 16 Este 43 Este 0 -- -- 74
2017-10-22 15:00:00 19.6 22 Este 41 Este 0 -- -- 70
2017-10-22 14:00:00 19.5 24 Este 48 Este 0 -- -- 70
2017-10-22 13:00:00 17.8 18 Este 54 Este 0 -- -- 77
2017-10-22 12:00:00 16.9 21 Este 47 Este 0 -- -- 88
2017-10-22 11:00:00 17.4 22 Este 41 Sudeste 0 -- -- 79
2017-10-22 10:00:00 16.9 17 Este 52 Este 0 -- -- 75
2017-10-22 09:00:00 16.1 21 Este 46 Nordeste 0 -- -- 78
2017-10-22 08:00:00 16.1 16 Este 44 Este 0 -- -- 79
2017-10-22 07:00:00 16 25 Este 46 Este 0 -- -- 80
2017-10-22 06:00:00 16.3 22 Este 51 Este 0 -- -- 76
2017-10-22 05:00:00 16.2 24 Este 48 Este 0 -- -- 80
2017-10-22 04:00:00 16.4 23 Este 48 Nordeste 0 -- -- 74
2017-10-22 03:00:00 16.2 24 Este 53 Este 0 -- -- 72
2017-10-22 02:00:00 16.1 20 Este 52 Este 0 -- -- 83
2017-10-22 01:00:00 17.1 13 Este 50 Este 0 -- -- 67
2017-10-22 00:00:00 17.1 12 Nordeste 45 Este 0 -- -- 71
2017-10-21 23:00:00 17.2 12 Este 41 Este 0 -- -- 69
2017-10-21 22:00:00 17.2 22 Este 42 Este 0 -- -- 70
2017-10-21 21:00:00 17 16 Este 35 Este 0 -- -- 75
2017-10-21 20:00:00 17 5 Norte 40 Este 0 -- -- 79
2017-10-21 19:00:00 17.5 19 Este 41 Este 0 -- -- 76
2017-10-21 18:00:00 18.1 19 Este 47 Este 0 -- -- 66
2017-10-21 17:00:00 17.8 22 Este 51 Este 0 -- -- 71
2017-10-21 16:00:00 17 21 Este 48 Sudeste 0 -- -- 80
2017-10-21 15:00:00 18.7 21 Este 43 Sudeste 0 -- -- 70
2017-10-21 14:00:00 19 20 Sudeste 40 Este 0 -- -- 73
2017-10-21 13:00:00 19.3 15 Este 46 Este 0 -- -- 69
2017-10-21 12:00:00 19.2 22 Este 57 Este 0 -- -- 64
2017-10-21 11:00:00 19.1 20 Este 64 Este 0 -- -- 58
2017-10-21 10:00:00 16.1 17 Este 46 Este 0 -- -- 73
2017-10-21 09:00:00 16.1 15 Este 43 Nordeste 0 -- -- 77
2017-10-21 08:00:00 15.4 18 Este 41 Este 0 -- -- 78
2017-10-21 07:00:00 15.7 12 Nordeste 41 Este 0 -- -- 63
2017-10-21 06:00:00 15.7 20 Este 36 Este 0 -- -- 77
2017-10-21 05:00:00 16 21 Este 39 Este 0 -- -- 75
2017-10-21 04:00:00 16 19 Este 46 Este 0 -- -- 75
2017-10-21 03:00:00 15.7 22 Este 41 Este 0 -- -- 78
2017-10-21 02:00:00 15.6 22 Este 36 Este 0 -- -- 77
2017-10-21 01:00:00 15.9 20 Este 42 Este 0 -- -- 68
2017-10-21 00:00:00 15.5 16 Este 35 Sudeste 0 -- -- 78
2017-10-20 23:00:00 16 19 Este 43 Este 0 -- -- 76
2017-10-20 22:00:00 16.1 20 Este 36 Este 0 -- -- 78
2017-10-20 21:00:00 16.5 20 Este 39 Este 0 -- -- 77
2017-10-20 20:00:00 16.6 22 Este 40 Este 0 -- -- 76
2017-10-20 19:00:00 16.9 23 Este 37 Sudeste 0 -- -- 79
2017-10-20 18:00:00 18.3 12 Este 37 Sudeste 0 -- -- 78
2017-10-20 17:00:00 19 22 Sudeste 36 Este 0 -- -- 73
2017-10-20 16:00:00 18.5 18 Sudeste 32 Este 0 -- -- 73
2017-10-20 15:00:00 19.7 16 Este 31 Este 0 -- -- 70
2017-10-20 14:00:00 19.7 6 Oeste 26 Este 0 -- -- 75
2017-10-20 13:00:00 19.9 14 Este 32 Este 0 -- -- 67
2017-10-20 12:00:00 19.4 20 Este 30 Este 0 -- -- 69
2017-10-20 11:00:00 21 8 Sudeste 21 Sudeste 0 -- -- 62
2017-10-20 10:00:00 17.6 2 Norte 12 Sudeste 0 -- -- 74
2017-10-20 09:00:00 13 5 Este 9 Este 0 -- -- 87
2017-10-20 08:00:00 13.1 4 Este 9 Nordeste 0 -- -- 87
2017-10-20 07:00:00 13.6 5 Este 19 Sudeste 0 -- -- 86
2017-10-20 06:00:00 14.3 9 Este 19 Este 0 -- -- 88
2017-10-20 05:00:00 13.7 4 Este 8 Este 0 -- -- 88
2017-10-20 04:00:00 13.9 4 Este 13 Nordeste 0 -- -- 87
2017-10-20 03:00:00 14.1 6 Este 19 Este 0 -- -- 90
2017-10-20 02:00:00 14.2 4 Este 18 Este 0 -- -- 88
2017-10-20 01:00:00 14.2 3 Este 17 Sudeste 0 -- -- 89
2017-10-20 00:00:00 15.1 3 Nordeste 15 Este 0 -- -- 89
2017-10-19 23:00:00 15.9 3 Nordeste 16 Este 0 -- -- 88
2017-10-19 22:00:00 17.2 3 Oeste 9 Oeste 0 -- -- 87
2017-10-19 21:00:00 17.7 5 Oeste 12 Oeste 0 -- -- 86
2017-10-19 20:00:00 18.6 3 Noroeste 14 Noroeste 0 -- -- 81
2017-10-19 19:00:00 19.5 9 Oeste 18 Oeste 0 -- -- 75
2017-10-19 18:00:00 20.8 13 Oeste 19 Oeste 0 -- -- 71
2017-10-19 17:00:00 19.3 6 Este 26 Sudeste 0 -- -- 75
2017-10-19 16:00:00 19.7 8 Este 22 Este 0 -- -- 75
2017-10-19 15:00:00 19.5 8 Oeste 19 Oeste 0 -- -- 77
2017-10-19 14:00:00 20.3 9 Oeste 18 Oeste 0 -- -- 75
2017-10-19 13:00:00 20.3 10 Oeste 19 Oeste 0 -- -- 76
2017-10-19 12:00:00 20.8 11 Oeste 17 Oeste 0 -- -- 73
2017-10-19 11:00:00 21.1 7 Oeste 11 Oeste 0 -- -- 65
2017-10-19 10:00:00 17.4 2 Sudeste 7 Este 0 -- -- 77
2017-10-19 09:00:00 12.8 6 Este 9 Este 0 -- -- 88
2017-10-19 08:00:00 13.8 4 Sudeste 9 Sudeste 0 -- -- 86
2017-10-19 07:00:00 12.8 4 Sudeste 9 Este 0 -- -- 89
2017-10-19 06:00:00 14.1 3 Este 9 Este 0 -- -- 91
2017-10-19 05:00:00 12.2 5 Este 9 Este 0 -- -- 88
2017-10-19 04:00:00 13.4 4 Este 9 Este 0 -- -- 91
2017-10-19 03:00:00 13 2 Este 8 Este 0 -- -- 88
2017-10-19 02:00:00 13.4 5 Este 10 Este 0 -- -- 88
2017-10-19 01:00:00 14.2 5 Este 8 Nordeste 0 -- -- 88
2017-10-19 00:00:00 15.5 2 Este 7 Este 0 -- -- 84
2017-10-18 23:00:00 17 0 Calma 5 Oeste 0 -- -- 84
2017-10-18 22:00:00 17.6 0 Calma 7 Oeste 0 -- -- 84
2017-10-18 21:00:00 17.9 5 Oeste 8 Oeste 0 -- -- 85
2017-10-18 20:00:00 18.3 3 Oeste 11 Oeste 0 -- -- 83
2017-10-18 19:00:00 18.8 7 Oeste 12 Oeste 0 -- -- 83
2017-10-18 18:00:00 19.5 6 Oeste 14 Oeste 0 -- -- 81
2017-10-18 17:00:00 19.9 9 Oeste 16 Oeste 0 -- -- 78
2017-10-18 16:00:00 20.7 7 Oeste 21 Oeste 0 -- -- 74
2017-10-18 15:00:00 21.6 14 Oeste 23 Oeste 0 -- -- 69
2017-10-18 14:00:00 21.7 10 Oeste 21 Noroeste 0 -- -- 67
2017-10-18 13:00:00 21.9 10 Oeste 18 Oeste 0 -- -- 64
2017-10-18 12:00:00 21.2 10 Oeste 17 Oeste 0 -- -- 62
2017-10-18 11:00:00 21.3 6 Oeste 13 Oeste 0 -- -- 50
2017-10-18 10:00:00 16.7 2 Nordeste 5 Sudeste 0 -- -- 54
2017-10-18 09:00:00 11.4 5 Este 10 Este 0 -- -- 52
2017-10-18 08:00:00 11.4 3 Sudeste 9 Este 0 -- -- 54
2017-10-18 07:00:00 10.7 4 Este 9 Este 0 -- -- 60
2017-10-18 06:00:00 10.7 6 Este 9 Este 0 -- -- 54
2017-10-18 05:00:00 11.1 7 Este 9 Este 0 -- -- 59
2017-10-18 04:00:00 11.1 6 Este 9 Este 0 -- -- 69
2017-10-18 03:00:00 12 4 Este 8 Este 0 -- -- 80
2017-10-18 02:00:00 13.3 5 Este 8 Este 0 -- -- 85
2017-10-18 01:00:00 13.9 5 Este 8 Este 0 -- -- 80
2017-10-18 00:00:00 14.3 0 Calma 8 Este 0 -- -- 74
2017-10-17 23:00:00 15.7 3 Este 7 Nordeste 0 -- -- 77
2017-10-17 22:00:00 16.9 0 Calma 5 Noroeste 0 -- -- 87
2017-10-17 21:00:00 18.2 2 Norte 11 Oeste 0 -- -- 85
2017-10-17 20:00:00 19.5 4 Oeste 14 Oeste 0 -- -- 79
2017-10-17 19:00:00 20.4 4 Oeste 17 Oeste 0 -- -- 75
2017-10-17 18:00:00 21.4 6 Oeste 18 Oeste 0 -- -- 72
2017-10-17 17:00:00 22.3 11 Oeste 21 Oeste 0 -- -- 69
2017-10-17 16:00:00 22.7 12 Oeste 22 Oeste 0 -- -- 68
2017-10-17 15:00:00 22.8 10 Oeste 21 Oeste 0 -- -- 69
2017-10-17 14:00:00 22.8 13 Oeste 21 Oeste 0 -- -- 67
2017-10-17 13:00:00 23.2 13 Oeste 20 Oeste 0 -- -- 66
2017-10-17 12:00:00 23.2 7 Oeste 17 Oeste 0 -- -- 64
2017-10-17 11:00:00 23.6 8 Oeste 11 Oeste 0 -- -- 43
2017-10-17 10:00:00 19.5 2 Este 10 Este 0 -- -- 39
2017-10-17 09:00:00 15.3 4 Sudoeste 11 Sur 0 -- -- 59
2017-10-17 08:00:00 15.1 3 Sudeste 10 Este 0 -- -- 47
2017-10-17 07:00:00 15.4 6 Este 10 Este 0 -- -- 38
2017-10-17 06:00:00 15.9 5 Sudeste 11 Este 0 -- -- 38
2017-10-17 05:00:00 15.8 6 Este 8 Este 0 -- -- 39
2017-10-17 04:00:00 16.5 3 Sudeste 8 Sudeste 0 -- -- 39
2017-10-17 03:00:00 17.5 6 Este 9 Este 0 -- -- 37
2017-10-17 02:00:00 18 4 Este 9 Este 0 -- -- 46
2017-10-17 01:00:00 18.3 4 Este 8 Este 0 -- -- 39
2017-10-17 00:00:00 18.5 5 Este 12 Sudoeste 0 -- -- 53
2017-10-16 23:00:00 19 5 Este 13 Este 0 -- -- 45
2017-10-16 22:00:00 19.6 6 Sudeste 27 Oeste 0 -- -- 76
2017-10-16 21:00:00 20.3 2 Nordeste 10 Este 0 -- -- 41
2017-10-16 20:00:00 21.6 4 Sudoeste 7 Oeste 0 -- -- 70
2017-10-16 19:00:00 22 0 Calma 10 Oeste 0 -- -- 58
2017-10-16 18:00:00 22.8 5 Oeste 15 Oeste 0 -- -- 71
2017-10-16 17:00:00 24 5 Oeste 15 Oeste 0 -- -- 65
2017-10-16 16:00:00 25.5 12 Oeste 19 Oeste 0 -- -- 61
2017-10-16 15:00:00 24.6 9 Oeste 17 Oeste 0 -- -- 60
2017-10-16 14:00:00 24.7 13 Oeste 20 Oeste 0 -- -- 62
2017-10-16 13:00:00 24.1 3 Norte 20 Oeste 0 -- -- 66
2017-10-16 12:00:00 25 6 Oeste 18 Oeste 0 -- -- 60
2017-10-16 11:00:00 26.3 4 Oeste 14 Oeste 0 -- -- 43
2017-10-16 10:00:00 24 3 Sudeste 6 Sudeste 0 -- -- 27
2017-10-16 09:00:00 19.6 5 Sudeste 8 Este 0 -- -- 32
2017-10-16 08:00:00 18.9 4 Sudeste 7 Sudeste 0 -- -- 32
2017-10-16 07:00:00 18.7 5 Este 6 Sudeste 0 -- -- 33
2017-10-16 06:00:00 18.8 4 Este 8 Este 0 -- -- 33
2017-10-16 05:00:00 19.4 5 Este 7 Nordeste 0 -- -- 32
2017-10-16 04:00:00 20.4 3 Sudeste 5 Sudeste 0 -- -- 31
2017-10-16 03:00:00 20.8 3 Sudeste 6 Sudeste 0 -- -- 31
2017-10-16 02:00:00 20.8 5 Este 7 Este 0 -- -- 31
2017-10-16 01:00:00 21.3 4 Este 8 Este 0 -- -- 31
2017-10-16 00:00:00 21.6 3 Sudeste 6 Este 0 -- -- 31
2017-10-15 23:00:00 22.1 3 Sudeste 9 Este 0 -- -- 30
2017-10-15 22:00:00 22.1 5 Este 9 Este 0 -- -- 33
2017-10-15 21:00:00 23.3 2 Sudoeste 6 Oeste 0 -- -- 32
2017-10-15 20:00:00 24.6 4 Oeste 14 Oeste 0 -- -- 29
2017-10-15 19:00:00 26.5 10 Oeste 20 Oeste 0 -- -- 28
2017-10-15 18:00:00 27.6 10 Oeste 24 Oeste 0 -- -- 26
2017-10-15 17:00:00 28.6 14 Oeste 26 Oeste 0 -- -- 27
2017-10-15 16:00:00 28.7 13 Oeste 29 Oeste 0 -- -- 25
2017-10-15 15:00:00 29.3 11 Oeste 26 Sudoeste 0 -- -- 26
2017-10-15 14:00:00 29 8 Oeste 23 Oeste 0 -- -- 29
2017-10-15 13:00:00 27.5 5 Noroeste 14 Oeste 0 -- -- 32
2017-10-15 12:00:00 26.6 6 Oeste 10 Oeste 0 -- -- 24
2017-10-15 11:00:00 26.3 6 Oeste 9 Oeste 0 -- -- 27
2017-10-15 10:00:00 23.5 0 Calma 5 Este 0 -- -- 35
2017-10-15 09:00:00 22 3 Sudeste 10 Este 0 -- -- 35
2017-10-15 08:00:00 22 5 Sudeste 10 Sudeste 0 -- -- 34
2017-10-15 07:00:00 21.8 6 Este 9 Este 0 -- -- 35
2017-10-15 06:00:00 22.1 5 Este 11 Nordeste 0 -- -- 34
2017-10-15 05:00:00 22.8 3 Sur 12 Este 0 -- -- 32
2017-10-15 04:00:00 22.7 3 Sudeste 10 Sudeste 0 -- -- 33
2017-10-15 03:00:00 23.5 6 Sudeste 13 Este 0 -- -- 32
2017-10-15 02:00:00 23.3 5 Este 12 Nordeste 0 -- -- 32
2017-10-15 01:00:00 23 7 Este 22 Oeste 0 -- -- 46
2017-10-15 00:00:00 24.3 4 Este 11 Sudeste 0 -- -- 29
2017-10-14 23:00:00 24.2 6 Sudeste 12 Este 0 -- -- 28
2017-10-14 22:00:00 24.3 3 Este 10 Este 0 -- -- 28
2017-10-14 21:00:00 24.9 3 Este 8 Este 0 -- -- 28
2017-10-14 20:00:00 26.2 3 Sudoeste 15 Oeste 0 -- -- 27
2017-10-14 19:00:00 27.3 4 Noroeste 14 Noroeste 0 -- -- 26
2017-10-14 18:00:00 28.3 9 Noroeste 21 Oeste 0 -- -- 30
2017-10-14 17:00:00 28.8 12 Oeste 33 Oeste 0 -- -- 29
2017-10-14 16:00:00 29.3 8 Noroeste 30 Oeste 0 -- -- 29
2017-10-14 15:00:00 29.9 7 Oeste 21 Oeste 0 -- -- 26
2017-10-14 14:00:00 29.7 8 Noroeste 17 Oeste 0 -- -- 26
2017-10-14 13:00:00 27.9 3 Norte 24 Oeste 0 -- -- 33
2017-10-14 12:00:00 29 13 Oeste 31 Oeste 0 -- -- 28
2017-10-14 11:00:00 25.1 5 Sudeste 22 Oeste 0 -- -- 40
2017-10-14 10:00:00 25.3 7 Sudoeste 16 Oeste 0 -- -- 33
2017-10-14 09:00:00 23.1 6 Este 26 Noroeste 0 -- -- 37
2017-10-14 08:00:00 22.8 5 Este 34 Oeste 0 -- -- 46
2017-10-14 07:00:00 24.6 11 Sudeste 19 Sudeste 0 -- -- 26
2017-10-14 06:00:00 23 6 Este 13 Este 0 -- -- 30
2017-10-14 05:00:00 22.6 8 Este 21 Oeste 0 -- -- 34
2017-10-14 04:00:00 23.6 6 Este 15 Sudeste 0 -- -- 29
2017-10-14 03:00:00 24 6 Este 12 Este 0 -- -- 27
2017-10-14 02:00:00 22.9 5 Este 8 Este 0 -- -- 30
2017-10-14 01:00:00 22.5 5 Este 10 Este 0 -- -- 31
2017-10-14 00:00:00 22.2 5 Este 7 Este 0 -- -- 32
2017-10-13 23:00:00 22.9 4 Sudeste 8 Este 0 -- -- 31
2017-10-13 22:00:00 23.3 5 Este 9 Sudeste 0 -- -- 32
2017-10-13 21:00:00 23.4 4 Este 9 Sudeste 0 -- -- 35
2017-10-13 20:00:00 25 3 Sudeste 11 Oeste 0 -- -- 37
2017-10-13 19:00:00 27.5 8 Oeste 13 Oeste 0 -- -- 36
2017-10-13 18:00:00 29.5 6 Oeste 16 Oeste 0 -- -- 32
2017-10-13 17:00:00 30.2 13 Oeste 22 Oeste 0 -- -- 26
2017-10-13 16:00:00 30.5 13 Noroeste 28 Oeste 0 -- -- 24
2017-10-13 15:00:00 31.2 13 Oeste 26 Oeste 0 -- -- 26
2017-10-13 14:00:00 31.4 13 Noroeste 24 Oeste 0 -- -- 27
2017-10-13 13:00:00 31.2 10 Oeste 18 Oeste 0 -- -- 25
2017-10-13 12:00:00 30 5 Oeste 17 Oeste 0 -- -- 22
2017-10-13 11:00:00 28.8 5 Noroeste 11 Noroeste 0 -- -- 24
2017-10-13 10:00:00 25.2 3 Este 9 Sudeste 0 -- -- 29
2017-10-13 09:00:00 21.3 6 Sudeste 11 Este 0 -- -- 33
2017-10-13 08:00:00 21.4 6 Este 13 Nordeste 0 -- -- 32
2017-10-13 07:00:00 21.6 6 Este 13 Este 0 -- -- 32
2017-10-13 06:00:00 21.5 6 Sudeste 12 Este 0 -- -- 31
2017-10-13 05:00:00 22.3 5 Este 18 Oeste 0 -- -- 31
2017-10-13 04:00:00 23.9 9 Este 20 Sudeste 0 -- -- 27
2017-10-13 03:00:00 21.9 6 Este 14 Este 0 -- -- 32
2017-10-13 02:00:00 22.4 6 Este 15 Este 0 -- -- 32
2017-10-13 01:00:00 21.3 8 Este 12 Sudeste 0 -- -- 34
2017-10-13 00:00:00 21.6 8 Este 13 Este 0 -- -- 34
2017-10-12 23:00:00 22.1 6 Este 13 Sudeste 0 -- -- 33
2017-10-12 22:00:00 22.7 4 Este 12 Este 0 -- -- 35
2017-10-12 21:00:00 23.2 3 Este 6 Sudoeste 0 -- -- 35
2017-10-12 20:00:00 25.1 6 Sudeste 10 Sudeste 0 -- -- 32
2017-10-12 19:00:00 26.7 5 Sudoeste 16 Oeste 0 -- -- 30
2017-10-12 18:00:00 27.5 10 Oeste 19 Oeste 0 -- -- 29
2017-10-12 17:00:00 27.2 8 Oeste 22 Oeste 0 -- -- 45
2017-10-12 16:00:00 27.7 9 Oeste 16 Oeste 0 -- -- 41
2017-10-12 15:00:00 26.8 11 Oeste 15 Oeste 0 -- -- 35
2017-10-12 14:00:00 27 12 Oeste 18 Oeste 0 -- -- 31
2017-10-12 13:00:00 27.2 11 Oeste 18 Oeste 0 -- -- 46
2017-10-12 12:00:00 27 10 Oeste 16 Oeste 0 -- -- 45
2017-10-12 11:00:00 24.5 3 Noroeste 11 Oeste 0 -- -- 40
2017-10-12 10:00:00 21.9 6 Sudoeste 15 Oeste 0 -- -- 43
2017-10-12 09:00:00 19.1 5 Sudeste 13 Sudeste 0 -- -- 44
2017-10-12 08:00:00 17.3 6 Sudeste 12 Sudeste 0 -- -- 49
2017-10-12 07:00:00 17.6 5 Sudeste 14 Sur 0 -- -- 46
2017-10-12 06:00:00 17.8 7 Sudeste 13 Sudeste 0 -- -- 46
2017-10-12 05:00:00 17.1 2 Sur 10 Sudeste 0 -- -- 50
2017-10-12 04:00:00 16.4 3 Este 12 Sudeste 0 -- -- 51
2017-10-12 03:00:00 16.2 7 Sudeste 10 Sudeste 0 -- -- 49
2017-10-12 02:00:00 15.7 2 Este 9 Sur 0 -- -- 50
2017-10-12 01:00:00 14.9 6 Sudeste 12 Este 0 -- -- 51
2017-10-12 00:00:00 14.1 2 Este 8 Este 0 -- -- 51
2017-10-11 23:00:00 14.2 3 Sudeste 8 Este 0 -- -- 56
2017-10-11 22:00:00 15.1 4 Este 12 Este 0 -- -- 60
2017-10-11 21:00:00 16.1 6 Este 11 Este 0 -- -- 72
2017-10-11 20:00:00 18.7 3 Oeste 11 Noroeste 0 -- -- 81
2017-10-11 19:00:00 19.8 5 Oeste 17 Oeste 0 -- -- 76
2017-10-11 18:00:00 20.8 10 Oeste 18 Oeste 0 -- -- 74
2017-10-11 17:00:00 21.2 10 Oeste 22 Oeste 0 -- -- 70
2017-10-11 16:00:00 21.6 11 Oeste 24 Oeste 0 -- -- 68
2017-10-11 15:00:00 22.2 14 Oeste 22 Oeste 0 -- -- 68
2017-10-11 14:00:00 21.7 15 Oeste 24 Oeste 0 -- -- 67
2017-10-11 13:00:00 21.7 12 Oeste 20 Oeste 0 -- -- 64
2017-10-11 12:00:00 21.2 10 Oeste 17 Oeste 0 -- -- 61
2017-10-11 11:00:00 21.4 4 Sudoeste 11 Oeste 0 -- -- 53
2017-10-11 10:00:00 16.8 6 Este 10 Este 0 -- -- 66
2017-10-11 09:00:00 11.8 7 Este 12 Sudeste 0 -- -- 82
2017-10-11 08:00:00 11.2 6 Este 10 Este 0 -- -- 84
2017-10-11 07:00:00 11.5 5 Sudeste 12 Este 0 -- -- 83
2017-10-11 06:00:00 11.3 7 Este 12 Este 0 -- -- 83
2017-10-11 05:00:00 11.8 5 Sudeste 10 Este 0 -- -- 80
2017-10-11 04:00:00 11.7 7 Este 10 Este 0 -- -- 81
2017-10-11 03:00:00 11.9 7 Este 9 Este 0 -- -- 82
2017-10-11 02:00:00 12.1 5 Este 9 Este 0 -- -- 82
2017-10-11 01:00:00 12.8 6 Este 10 Este 0 -- -- 80
2017-10-11 00:00:00 13.1 5 Este 11 Este 0 -- -- 80
2017-10-10 23:00:00 13.6 6 Este 10 Este 0 -- -- 81
2017-10-10 22:00:00 14.9 4 Este 8 Este 0 -- -- 83
2017-10-10 21:00:00 16.9 0 Calma 6 Noroeste 0 -- -- 80
2017-10-10 20:00:00 17.7 3 Noroeste 12 Oeste 0 -- -- 77
2017-10-10 19:00:00 18.5 9 Oeste 21 Oeste 0 -- -- 76
2017-10-10 18:00:00 19.2 9 Oeste 19 Oeste 0 -- -- 73
2017-10-10 17:00:00 19.4 9 Oeste 21 Oeste 0 -- -- 73
2017-10-10 16:00:00 20.4 11 Oeste 27 Oeste 0 -- -- 63
2017-10-10 15:00:00 19.7 11 Oeste 21 Oeste 0 -- -- 69
2017-10-10 14:00:00 18.7 9 Oeste 17 Oeste 0 -- -- 78
2017-10-10 13:00:00 19.3 12 Oeste 23 Oeste 0 -- -- 75
2017-10-10 12:00:00 20.7 10 Oeste 18 Oeste 0 -- -- 69
2017-10-10 11:00:00 20.3 5 Oeste 9 Oeste 0 -- -- 60
2017-10-10 10:00:00 17.1 4 Norte 10 Sudeste 0 -- -- 71
2017-10-10 09:00:00 12.1 7 Este 9 Este 0 -- -- 86
2017-10-10 08:00:00 12.5 4 Este 10 Este 0 -- -- 85
2017-10-10 07:00:00 12.6 5 Este 8 Este 0 -- -- 88
2017-10-10 06:00:00 13.5 4 Este 8 Este 0 -- -- 86
2017-10-10 05:00:00 13.7 4 Este 7 Este 0 -- -- 86
2017-10-10 04:00:00 14.3 5 Este 6 Este 0 -- -- 85
2017-10-10 03:00:00 14.2 3 Este 8 Este 0 -- -- 84
2017-10-10 02:00:00 14.1 4 Este 10 Este 0 -- -- 86
2017-10-10 01:00:00 14.2 3 Sudeste 8 Nordeste 0 -- -- 90
2017-10-10 00:00:00 14.8 2 Sudoeste 6 Este 0 -- -- 88
2017-10-09 23:00:00 15.1 4 Este 8 Este 0 -- -- 87
2017-10-09 22:00:00 15.3 4 Nordeste 9 Nordeste 0 -- -- 88
2017-10-09 21:00:00 15.4 6 Este 10 Este 0 -- -- 87
2017-10-09 20:00:00 16.2 4 Sur 19 Oeste 0 -- -- 86
2017-10-09 19:00:00 16.7 14 Oeste 21 Oeste 0.8 -- -- 90
2017-10-09 18:00:00 16.9 4 Sudoeste 20 Oeste 0.4 -- -- 89
2017-10-09 17:00:00 17.5 12 Oeste 21 Oeste 0.4 -- -- 85
2017-10-09 16:00:00 18.9 12 Oeste 20 Oeste 0 -- -- 77
2017-10-09 15:00:00 19.7 9 Oeste 30 Oeste 0 -- -- 69
2017-10-09 14:00:00 20.8 17 Oeste 27 Oeste 0 -- -- 64
2017-10-09 13:00:00 21.6 12 Oeste 27 Oeste 0 -- -- 57
2017-10-09 12:00:00 21 12 Oeste 22 Oeste 0 -- -- 55
2017-10-09 11:00:00 20.2 5 Sudeste 10 Este 0 -- -- 52
2017-10-09 10:00:00 16.5 3 Este 8 Este 0 -- -- 64
2017-10-09 09:00:00 11.4 5 Este 10 Este 0 -- -- 82
2017-10-09 08:00:00 11.5 7 Este 10 Este 0 -- -- 81
2017-10-09 07:00:00 11 6 Este 9 Este 0 -- -- 81
2017-10-09 06:00:00 11 7 Este 10 Este 0 -- -- 81
2017-10-09 05:00:00 11.2 5 Este 9 Este 0 -- -- 78
2017-10-09 04:00:00 11.6 5 Este 9 Este 0 -- -- 79
2017-10-09 03:00:00 11.8 4 Sudeste 9 Este 0 -- -- 79
2017-10-09 02:00:00 12.5 5 Este 9 Este 0 -- -- 80
2017-10-09 01:00:00 13.2 8 Este 10 Este 0 -- -- 79
2017-10-09 00:00:00 13.8 4 Este 8 Este 0 -- -- 74
2017-10-08 23:00:00 15.3 3 Este 10 Nordeste 0 -- -- 75
2017-10-08 22:00:00 15.3 6 Este 12 Este 0 -- -- 67
2017-10-08 21:00:00 16.2 5 Nordeste 10 Este 0 -- -- 64
2017-10-08 20:00:00 18.9 4 Sudoeste 17 Sur 0 -- -- 61
2017-10-08 19:00:00 20.4 8 Sudoeste 21 Sur 0 -- -- 59
2017-10-08 18:00:00 21.5 11 Oeste 24 Oeste 0 -- -- 53
2017-10-08 17:00:00 21.9 11 Oeste 23 Oeste 0 -- -- 54
2017-10-08 16:00:00 21.1 8 Sudoeste 28 Oeste 0 -- -- 59
2017-10-08 15:00:00 21.6 14 Sudoeste 35 Oeste 0 -- -- 56
2017-10-08 14:00:00 22.2 12 Sudoeste 29 Oeste 0 -- -- 61
2017-10-08 13:00:00 21.8 12 Oeste 23 Oeste 0 -- -- 60
2017-10-08 12:00:00 21.4 9 Oeste 17 Oeste 0 -- -- 61
2017-10-08 11:00:00 20.2 6 Oeste 11 Oeste 0 -- -- 61
2017-10-08 10:00:00 16.3 4 Este 10 Este 0 -- -- 72
2017-10-08 09:00:00 11.6 6 Este 9 Este 0 -- -- 88
2017-10-08 08:00:00 11.3 6 Este 9 Este 0 -- -- 89
2017-10-08 07:00:00 11.1 5 Este 9 Este 0 -- -- 87
2017-10-08 06:00:00 11 7 Este 10 Este 0 -- -- 87
2017-10-08 05:00:00 11.5 5 Este 8 Este 0 -- -- 85
2017-10-08 04:00:00 11.8 4 Este 11 Este 0 -- -- 84
2017-10-08 03:00:00 12 2 Este 8 Este 0 -- -- 85
2017-10-08 02:00:00 12.8 4 Este 7 Este 0 -- -- 86
2017-10-08 01:00:00 13.2 5 Este 10 Este 0 -- -- 86
2017-10-08 00:00:00 13.7 5 Este 9 Este 0 -- -- 84
2017-10-07 23:00:00 15 0 Calma 10 Este 0 -- -- 81
2017-10-07 22:00:00 16.2 4 Este 9 Este 0 -- -- 83
2017-10-07 21:00:00 17.1 4 Oeste 16 Sudoeste 0 -- -- 84
2017-10-07 20:00:00 18 7 Sudoeste 22 Oeste 0 -- -- 81
2017-10-07 19:00:00 18.4 8 Sur 20 Sudeste 0 -- -- 70
2017-10-07 18:00:00 19.4 13 Sur 28 Oeste 0 -- -- 70
2017-10-07 17:00:00 19.3 6 Oeste 18 Sudoeste 0 -- -- 71
2017-10-07 16:00:00 19.1 5 Oeste 15 Noroeste 0 -- -- 74
2017-10-07 15:00:00 19.6 9 Oeste 18 Oeste 0 -- -- 71
2017-10-07 14:00:00 19.4 10 Oeste 19 Oeste 0 -- -- 73
2017-10-07 13:00:00 18.6 11 Oeste 19 Oeste 0 -- -- 75
2017-10-07 12:00:00 18.5 4 Oeste 14 Oeste 0 -- -- 73
2017-10-07 11:00:00 18.1 7 Oeste 11 Oeste 0 -- -- 69
2017-10-07 10:00:00 16.9 3 Este 8 Este 0 -- -- 71
2017-10-07 09:00:00 11.9 3 Este 9 Este 0 -- -- 86
2017-10-07 08:00:00 11.6 5 Este 10 Este 0 -- -- 84
2017-10-07 07:00:00 12.3 7 Este 12 Este 0 -- -- 84
2017-10-07 06:00:00 12.6 6 Este 10 Este 0 -- -- 86
2017-10-07 05:00:00 13.4 4 Este 9 Este 0 -- -- 86
2017-10-07 04:00:00 12.7 3 Este 8 Este 0 -- -- 86
2017-10-07 03:00:00 13.1 3 Este 8 Este 0 -- -- 87
2017-10-07 02:00:00 13.3 6 Este 9 Este 0 -- -- 86
2017-10-07 01:00:00 13.8 7 Este 9 Este 0 -- -- 82
2017-10-07 00:00:00 14.2 6 Este 8 Este 0 -- -- 84
2017-10-06 23:00:00 15.7 2 Sudeste 5 Este 0 -- -- 81
2017-10-06 22:00:00 17.3 0 Calma 8 Oeste 0 -- -- 78
2017-10-06 21:00:00 17.8 3 Oeste 14 Oeste 0 -- -- 82
2017-10-06 20:00:00 18.8 7 Oeste 13 Oeste 0 -- -- 77
2017-10-06 19:00:00 19.6 8 Oeste 19 Oeste 0 -- -- 74
2017-10-06 18:00:00 20.8 11 Oeste 20 Oeste 0 -- -- 69
2017-10-06 17:00:00 21 11 Oeste 23 Oeste 0 -- -- 70
2017-10-06 16:00:00 21.8 12 Oeste 27 Oeste 0 -- -- 67
2017-10-06 15:00:00 22.1 14 Oeste 26 Oeste 0 -- -- 65
2017-10-06 14:00:00 21.8 12 Oeste 25 Oeste 0 -- -- 64
2017-10-06 13:00:00 22.2 10 Oeste 26 Oeste 0 -- -- 62
2017-10-06 12:00:00 21.9 9 Oeste 17 Oeste 0 -- -- 60
2017-10-06 11:00:00 20.6 7 Oeste 12 Oeste 0 -- -- 63
2017-10-06 10:00:00 17 5 Este 9 Este 0 -- -- 75
2017-10-06 09:00:00 12.6 6 Nordeste 9 Nordeste 0 -- -- 89
2017-10-06 08:00:00 12.4 5 Este 8 Este 0 -- -- 90
2017-10-06 07:00:00 12.9 3 Este 10 Nordeste 0 -- -- 88
2017-10-06 06:00:00 13.4 3 Este 8 Nordeste 0 -- -- 88
2017-10-06 05:00:00 12.9 5 Este 7 Este 0 -- -- 87
2017-10-06 04:00:00 13.5 2 Este 8 Nordeste 0 -- -- 83
2017-10-06 03:00:00 14.8 4 Este 6 Sudeste 0 -- -- 82
2017-10-06 02:00:00 14.1 0 Calma 4 Nordeste 0 -- -- 86
2017-10-06 01:00:00 13.4 3 Este 9 Este 0 -- -- 85
2017-10-06 00:00:00 13.5 5 Este 8 Este 0 -- -- 80
2017-10-05 23:00:00 14.9 2 Sudeste 7 Este 0 -- -- 78
2017-10-05 22:00:00 16.8 0 Calma 6 Oeste 0 -- -- 81
2017-10-05 21:00:00 17.4 6 Oeste 15 Sudoeste 0 -- -- 80
2017-10-05 20:00:00 18.7 8 Oeste 18 Oeste 0 -- -- 73
2017-10-05 19:00:00 20.2 9 Oeste 25 Oeste 0 -- -- 67
2017-10-05 18:00:00 21.2 9 Oeste 21 Oeste 0 -- -- 63
2017-10-05 17:00:00 21 14 Oeste 28 Oeste 0 -- -- 64
2017-10-05 16:00:00 21.1 15 Oeste 27 Oeste 0 -- -- 64
2017-10-05 15:00:00 20.4 13 Oeste 26 Oeste 0 -- -- 69
2017-10-05 14:00:00 21.4 13 Oeste 24 Oeste 0 -- -- 68
2017-10-05 13:00:00 21.9 13 Oeste 21 Oeste 0 -- -- 62
2017-10-05 12:00:00 21.8 8 Oeste 16 Sudoeste 0 -- -- 61
2017-10-05 11:00:00 20.9 3 Sur 12 Oeste 0 -- -- 62
2017-10-05 10:00:00 17.1 6 Este 10 Este 0 -- -- 74
2017-10-05 09:00:00 13.5 5 Este 9 Este 0 -- -- 88
2017-10-05 08:00:00 13 3 Este 12 Este 0 -- -- 84
2017-10-05 07:00:00 13.4 4 Este 12 Este 0 -- -- 87
2017-10-05 06:00:00 14 5 Este 8 Este 0 -- -- 85
2017-10-05 05:00:00 13.7 4 Este 9 Este 0 -- -- 83
2017-10-05 04:00:00 13 4 Este 10 Sudeste 0 -- -- 77
2017-10-05 03:00:00 15.1 5 Este 10 Este 0 -- -- 86
2017-10-05 02:00:00 14.9 3 Este 12 Este 0 -- -- 83
2017-10-05 01:00:00 15.4 7 Este 11 Este 0 -- -- 82
2017-10-05 00:00:00 16.3 4 Nordeste 7 Este 0 -- -- 86
2017-10-04 23:00:00 15.9 0 Calma 8 Este 0 -- -- 77
2017-10-04 22:00:00 16.6 4 Este 8 Este 0 -- -- 79
2017-10-04 21:00:00 18.8 4 Oeste 9 Oeste 0 -- -- 83
2017-10-04 20:00:00 19.4 4 Oeste 10 Oeste 0 -- -- 80
2017-10-04 19:00:00 20.1 6 Oeste 17 Noroeste 0 -- -- 78
2017-10-04 18:00:00 21.5 10 Oeste 22 Oeste 0 -- -- 72
2017-10-04 17:00:00 22.7 10 Noroeste 22 Oeste 0 -- -- 70
2017-10-04 16:00:00 23.1 11 Oeste 24 Oeste 0 -- -- 67
2017-10-04 15:00:00 23.3 13 Oeste 21 Oeste 0 -- -- 66
2017-10-04 14:00:00 22.9 9 Oeste 23 Oeste 0 -- -- 68
2017-10-04 13:00:00 23.2 7 Sudoeste 22 Oeste 0 -- -- 66
2017-10-04 12:00:00 22.2 9 Oeste 16 Oeste 0 -- -- 68
2017-10-04 11:00:00 21.9 9 Oeste 15 Oeste 0 -- -- 63
2017-10-04 10:00:00 19.2 2 Noroeste 12 Este 0 -- -- 61
2017-10-04 09:00:00 13.9 3 Este 10 Este 0 -- -- 84
2017-10-04 08:00:00 13.7 4 Este 7 Este 0 -- -- 83
2017-10-04 07:00:00 13.1 2 Sudeste 9 Este 0 -- -- 69
2017-10-04 06:00:00 13.5 0 Calma 8 Este 0 -- -- 60
2017-10-04 05:00:00 14.5 3 Sudeste 9 Este 0 -- -- 55
2017-10-04 04:00:00 15.6 2 Sur 11 Este 0 -- -- 51
2017-10-04 03:00:00 16.9 4 Este 15 Este 0 -- -- 44
2017-10-04 02:00:00 17.4 4 Este 12 Este 0 -- -- 42
2017-10-04 01:00:00 19.4 7 Este 24 Este 0 -- -- 44
2017-10-04 00:00:00 18.5 5 Este 20 Este 0 -- -- 45
2017-10-03 23:00:00 21.2 10 Este 34 Sudeste 0 -- -- 39
2017-10-03 22:00:00 21.3 19 Sudeste 30 Este 0 -- -- 38
2017-10-03 21:00:00 20.8 5 Nordeste 27 Este 0 -- -- 63
2017-10-03 20:00:00 21.2 3 Noroeste 15 Oeste 0 -- -- 74
2017-10-03 19:00:00 22.3 6 Oeste 18 Oeste 0 -- -- 73
2017-10-03 18:00:00 23.1 12 Oeste 19 Oeste 0 -- -- 70
2017-10-03 17:00:00 23.4 13 Oeste 30 Oeste 0 -- -- 68
2017-10-03 16:00:00 24.8 14 Oeste 22 Oeste 0 -- -- 63
2017-10-03 15:00:00 24.6 13 Oeste 23 Oeste 0 -- -- 62
2017-10-03 14:00:00 24.2 15 Oeste 23 Oeste 0 -- -- 63
2017-10-03 13:00:00 24.8 9 Oeste 29 Sudeste 0 -- -- 59
2017-10-03 12:00:00 25.2 14 Sudoeste 42 Sudeste 0 -- -- 56
2017-10-03 11:00:00 24.5 18 Este 42 Sudeste 0 -- -- 43
2017-10-03 10:00:00 23.5 19 Este 45 Este 0 -- -- 40
2017-10-03 09:00:00 21.6 19 Este 49 Este 0 -- -- 41
2017-10-03 08:00:00 20.3 23 Este 51 Este 0 -- -- 44
2017-10-03 07:00:00 13.1 5 Este 12 Nordeste 0 -- -- 90
2017-10-03 06:00:00 13 4 Sur 10 Nordeste 0 -- -- 90
2017-10-03 05:00:00 14 3 Este 8 Este 0 -- -- 90
2017-10-03 04:00:00 13.9 0 Calma 10 Este 0 -- -- 81
2017-10-03 03:00:00 15 3 Este 17 Este 0 -- -- 64
2017-10-03 02:00:00 14.6 4 Este 13 Nordeste 0 -- -- 76
2017-10-03 01:00:00 15.3 0 Calma 11 Oeste 0 -- -- 89
2017-10-03 00:00:00 16.6 4 Oeste 17 Oeste 0 -- -- 90
2017-10-02 23:00:00 16.9 7 Oeste 18 Norte 0 -- -- 83
2017-10-02 22:00:00 18.2 9 Noroeste 35 Sudeste 0 -- -- 81
2017-10-02 21:00:00 18.2 3 Noroeste 10 Noroeste 0 -- -- 85
2017-10-02 20:00:00 19.5 5 Oeste 14 Oeste 0 -- -- 80
2017-10-02 19:00:00 21.4 5 Oeste 19 Oeste 0 -- -- 72
2017-10-02 18:00:00 22 12 Oeste 32 Sudeste 0 -- -- 69
2017-10-02 17:00:00 22.7 20 Sudeste 37 Este 0 -- -- 56
2017-10-02 16:00:00 22.7 15 Oeste 36 Este 0 -- -- 65
2017-10-02 15:00:00 22 18 Este 41 Este 0 -- -- 62
2017-10-02 14:00:00 21.2 21 Este 37 Sudeste 0 -- -- 69
2017-10-02 13:00:00 20.7 21 Este 41 Sudeste 0 -- -- 71
2017-10-02 12:00:00 20.3 21 Este 37 Este 0 -- -- 74
2017-10-02 11:00:00 20.5 16 Este 28 Sudeste 0 -- -- 63
2017-10-02 10:00:00 18.2 3 Sudoeste 8 Sudoeste 0 -- -- 76
2017-10-02 09:00:00 13 4 Este 6 Este 0 -- -- 82
2017-10-02 08:00:00 13.2 3 Este 5 Sudeste 0 -- -- 70
2017-10-02 07:00:00 15.3 7 Sudeste 20 Sudeste 0 -- -- 78
2017-10-02 06:00:00 13.8 0 Calma 5 Este 0 -- -- 82
2017-10-02 05:00:00 16 7 Oeste 21 Sudeste 0 -- -- 81
2017-10-02 04:00:00 15 4 Este 12 Sudeste 0 -- -- 65
2017-10-02 03:00:00 16.8 8 Este 24 Este 0 -- -- 64
2017-10-02 02:00:00 16.1 3 Este 9 Este 0 -- -- 65
2017-10-02 01:00:00 17.1 4 Este 14 Oeste 0 -- -- 63
2017-10-02 00:00:00 18 5 Norte 18 Oeste 0 -- -- 65
2017-10-01 23:00:00 19.2 9 Norte 29 Nordeste 0 -- -- 53
2017-10-01 22:00:00 17.4 6 Oeste 19 Este 0 -- -- 77
2017-10-01 21:00:00 18.1 4 Norte 44 Este 0 -- -- 78
2017-10-01 20:00:00 18.5 21 Este 45 Sudeste 0 -- -- 72
2017-10-01 19:00:00 19 27 Este 51 Este 0 -- -- 78
2017-10-01 18:00:00 19.8 27 Este 52 Este 0 -- -- 76
2017-10-01 17:00:00 20.7 26 Este 53 Este 0 -- -- 71
2017-10-01 16:00:00 21.1 33 Este 65 Este 0 -- -- 70
2017-10-01 15:00:00 21.8 27 Este 52 Sudeste 0 -- -- 64
2017-10-01 14:00:00 21.2 28 Este 50 Este 0 -- -- 65
2017-10-01 13:00:00 20.9 29 Este 57 Este 0 -- -- 68
2017-10-01 12:00:00 20.3 30 Este 60 Este 0 -- -- 70
2017-10-01 11:00:00 18.5 32 Este 62 Sudeste 0 -- -- 73
2017-10-01 10:00:00 17.4 29 Este 54 Este 0 -- -- 78
2017-10-01 09:00:00 17.4 31 Este 62 Sudeste 0 -- -- 75
2017-10-01 08:00:00 17.1 26 Este 47 Este 0 -- -- 76
2017-10-01 07:00:00 17.4 23 Este 46 Este 0 -- -- 74
2017-10-01 06:00:00 17.2 21 Este 53 Este 0 -- -- 76
2017-10-01 05:00:00 18 17 Este 46 Este 0 -- -- 63
2017-10-01 04:00:00 18.1 22 Este 52 Este 0 -- -- 67
2017-10-01 03:00:00 18.8 22 Este 52 Este 0 -- -- 53
2017-10-01 02:00:00 17.5 29 Este 65 Este 0 -- -- 67
2017-10-01 01:00:00 17.2 29 Este 59 Sudeste 0 -- -- 74
2017-10-01 00:00:00 17.8 24 Este 54 Este 0 -- -- 67
2017-09-30 23:00:00 17.3 30 Este 53 Sudeste 0 -- -- 74
2017-09-30 22:00:00 17.2 29 Este 53 Este 0 -- -- 76
2017-09-30 21:00:00 17.2 26 Este 52 Este 0 -- -- 74
2017-09-30 20:00:00 17.9 26 Este 54 Sudeste 0 -- -- 71
2017-09-30 19:00:00 19.2 29 Este 48 Sudeste 0 -- -- 67
2017-09-30 18:00:00 19.9 26 Sudeste 57 Este 0 -- -- 64
2017-09-30 17:00:00 20.4 31 Este 53 Este 0 -- -- 63
2017-09-30 16:00:00 21.6 26 Este 49 Nordeste 0 -- -- 59
2017-09-30 15:00:00 21.5 27 Este 48 Este 0 -- -- 55
2017-09-30 14:00:00 21.5 27 Este 47 Este 0 -- -- 57
2017-09-30 13:00:00 21.2 28 Este 47 Este 0 -- -- 61
2017-09-30 12:00:00 20.4 27 Este 51 Sudeste 0 -- -- 59
2017-09-30 11:00:00 19.3 26 Este 49 Sudeste 0 -- -- 70
2017-09-30 10:00:00 18.5 22 Este 43 Este 0 -- -- 73
2017-09-30 09:00:00 16.7 19 Este 46 Este 0 -- -- 72
2017-09-30 08:00:00 16.3 22 Este 43 Este 0 -- -- 68
2017-09-30 07:00:00 17.3 17 Este 35 Este 0 -- -- 52
2017-09-30 06:00:00 16.6 13 Este 24 Este 0 -- -- 64
2017-09-30 05:00:00 15.1 6 Norte 17 Sudoeste 0 -- -- 85
2017-09-30 04:00:00 14.8 5 Sur 14 Sudeste 0 -- -- 62
2017-09-30 03:00:00 14.9 3 Noroeste 10 Noroeste 0 -- -- 88
2017-09-30 02:00:00 15.5 0 Calma 8 Oeste 0 -- -- 93
2017-09-30 01:00:00 14.9 3 Sudoeste 8 Norte 0 -- -- 90
2017-09-30 00:00:00 15.8 3 Sudeste 9 Este 0 -- -- 91
2017-09-29 23:00:00 16.5 4 Oeste 12 Norte 0 -- -- 91
2017-09-29 22:00:00 16.7 4 Noroeste 8 Norte 0 -- -- 90
2017-09-29 21:00:00 17.5 3 Sudoeste 23 Este 0 -- -- 87
2017-09-29 20:00:00 18.1 14 Este 25 Este 0 -- -- 77
2017-09-29 19:00:00 18.5 15 Sudeste 26 Sudeste 0 -- -- 81
2017-09-29 18:00:00 18.5 18 Este 30 Este 0 -- -- 85
2017-09-29 17:00:00 19 19 Este 32 Este 0 -- -- 82
2017-09-29 16:00:00 19.9 18 Este 35 Este 0 -- -- 78
2017-09-29 15:00:00 20.6 21 Este 36 Este 0 -- -- 71
2017-09-29 14:00:00 21.6 22 Este 42 Este 0 -- -- 67
2017-09-29 13:00:00 21.4 24 Este 42 Este 0 -- -- 66
2017-09-29 12:00:00 21 21 Este 42 Este 0 -- -- 67
2017-09-29 11:00:00 20.3 19 Este 34 Este 0 -- -- 68
2017-09-29 10:00:00 20.9 4 Oeste 16 Sudeste 0 -- -- 65
2017-09-29 09:00:00 15.8 8 Este 16 Sudeste 0 -- -- 79
2017-09-29 08:00:00 13.4 4 Este 8 Este 0 -- -- 73
2017-09-29 07:00:00 13.6 3 Este 6 Este 0 -- -- 72
2017-09-29 06:00:00 13.6 4 Este 6 Este 0 -- -- 77
2017-09-29 05:00:00 14 4 Este 6 Este 0 -- -- 78
2017-09-29 04:00:00 14.6 4 Sudeste 9 Este 0 -- -- 80
2017-09-29 03:00:00 15.3 3 Este 7 Este 0 -- -- 79
2017-09-29 02:00:00 15.9 3 Sudeste 7 Este 0 -- -- 77
2017-09-29 01:00:00 16.3 4 Este 6 Este 0 -- -- 76
2017-09-29 00:00:00 17.2 6 Este 8 Este 0 -- -- 74
2017-09-28 23:00:00 18.1 0 Calma 9 Este 0 -- -- 73
2017-09-28 22:00:00 19 3 Norte 9 Este 0 -- -- 77
2017-09-28 21:00:00 20.1 3 Nordeste 11 Oeste 0 -- -- 86
2017-09-28 20:00:00 22.1 0 Calma 13 Oeste 0 -- -- 75
2017-09-28 19:00:00 23.2 4 Oeste 17 Oeste 0 -- -- 71
2017-09-28 18:00:00 24.7 10 Oeste 21 Oeste 0 -- -- 66
2017-09-28 17:00:00 25.8 11 Oeste 21 Oeste 0 -- -- 60
2017-09-28 16:00:00 25.6 14 Oeste 21 Oeste 0 -- -- 59
2017-09-28 15:00:00 25.2 9 Oeste 23 Oeste 0 -- -- 63
2017-09-28 14:00:00 25.2 11 Oeste 23 Oeste 0 -- -- 60
2017-09-28 13:00:00 25.8 13 Oeste 21 Oeste 0 -- -- 56
2017-09-28 12:00:00 25.5 12 Oeste 19 Oeste 0 -- -- 51
2017-09-28 11:00:00 25.3 7 Oeste 9 Oeste 0 -- -- 48
2017-09-28 10:00:00 22.7 0 Calma 7 Este 0 -- -- 52
2017-09-28 09:00:00 16.9 3 Este 8 Este 0 -- -- 68
2017-09-28 08:00:00 16 4 Este 8 Este 0 -- -- 71
2017-09-28 07:00:00 15.6 5 Este 11 Nordeste 0 -- -- 72
2017-09-28 06:00:00 15.9 4 Este 9 Este 0 -- -- 68
2017-09-28 05:00:00 16.9 5 Este 8 Este 0 -- -- 68
2017-09-28 04:00:00 17.2 5 Este 8 Nordeste 0 -- -- 69
2017-09-28 03:00:00 17.7 5 Este 9 Este 0 -- -- 67
2017-09-28 02:00:00 17.9 5 Este 8 Este 0 -- -- 64
2017-09-28 01:00:00 18 4 Este 8 Este 0 -- -- 69
2017-09-28 00:00:00 18.2 4 Este 9 Nordeste 0 -- -- 69
2017-09-27 23:00:00 18.7 2 Este 8 Nordeste 0 -- -- 70
2017-09-27 22:00:00 19.4 3 Este 6 Este 0 -- -- 70
2017-09-27 21:00:00 20.6 3 Nordeste 5 Nordeste 0 -- -- 67
2017-09-27 20:00:00 22.7 3 Noroeste 13 Oeste 0 -- -- 62
2017-09-27 19:00:00 24.1 7 Oeste 19 Oeste 0 -- -- 58
2017-09-27 18:00:00 25.1 14 Oeste 20 Oeste 0 -- -- 57
2017-09-27 17:00:00 25.5 11 Oeste 29 Este 0 -- -- 59
2017-09-27 16:00:00 25.5 14 Sudeste 35 Sudeste 0 -- -- 51
2017-09-27 15:00:00 25.6 22 Sudeste 40 Este 0 -- -- 47
2017-09-27 14:00:00 24.9 16 Sudeste 31 Sudeste 0 -- -- 55
2017-09-27 13:00:00 25.5 9 Sur 37 Este 0 -- -- 58
2017-09-27 12:00:00 24.8 20 Este 33 Este 0 -- -- 50
2017-09-27 11:00:00 24.3 18 Este 32 Este 0 -- -- 50
2017-09-27 10:00:00 23.4 17 Este 31 Sudeste 0 -- -- 50
2017-09-27 09:00:00 20.8 13 Sudeste 26 Sudeste 0 -- -- 56
2017-09-27 08:00:00 17.1 6 Este 17 Este 0 -- -- 66
2017-09-27 07:00:00 16.5 4 Este 14 Este 0 -- -- 64
2017-09-27 06:00:00 16 6 Este 13 Este 0 -- -- 70
2017-09-27 05:00:00 15.6 5 Este 13 Este 0 -- -- 82
2017-09-27 04:00:00 15.9 5 Este 8 Este 0 -- -- 84
2017-09-27 03:00:00 16.8 3 Sudeste 7 Este 0 -- -- 81
2017-09-27 02:00:00 17.1 3 Este 9 Nordeste 0 -- -- 82
2017-09-27 01:00:00 17.4 3 Este 8 Este 0 -- -- 82
2017-09-27 00:00:00 17.5 4 Este 7 Este 0 -- -- 81
2017-09-26 23:00:00 18.3 4 Este 6 Este 0 -- -- 80
2017-09-26 22:00:00 19.4 0 Calma 8 Oeste 0 -- -- 78
2017-09-26 21:00:00 20.8 5 Oeste 9 Oeste 0 -- -- 79
2017-09-26 20:00:00 21.6 5 Oeste 14 Oeste 0 -- -- 77
2017-09-26 19:00:00 22.7 6 Oeste 17 Oeste 0 -- -- 69
2017-09-26 18:00:00 23.6 11 Oeste 21 Oeste 0 -- -- 64
2017-09-26 17:00:00 24.5 12 Oeste 23 Oeste 0 -- -- 61
2017-09-26 16:00:00 24.6 13 Oeste 26 Oeste 0 -- -- 62
2017-09-26 15:00:00 25.1 14 Oeste 26 Oeste 0 -- -- 61
2017-09-26 14:00:00 25.2 13 Oeste 24 Oeste 0 -- -- 60
2017-09-26 13:00:00 25.2 13 Oeste 25 Oeste 0 -- -- 56
2017-09-26 12:00:00 25.5 10 Oeste 18 Oeste 0 -- -- 56
2017-09-26 11:00:00 24.4 10 Oeste 16 Oeste 0 -- -- 58
2017-09-26 10:00:00 22.1 5 Este 11 Este 0 -- -- 64
2017-09-26 09:00:00 17.2 4 Este 8 Este 0 -- -- 81
2017-09-26 08:00:00 16.7 5 Este 9 Este 0 -- -- 81
2017-09-26 07:00:00 16.7 4 Este 9 Este 0 -- -- 82
2017-09-26 06:00:00 16.9 3 Este 7 Este 0 -- -- 80
2017-09-26 05:00:00 17 4 Sudeste 6 Este 0 -- -- 79
2017-09-26 04:00:00 16.9 5 Este 12 Este 0 -- -- 80
2017-09-26 03:00:00 17.3 3 Sudeste 7 Este 0 -- -- 76
2017-09-26 02:00:00 17.6 4 Este 7 Este 0 -- -- 75
2017-09-26 01:00:00 18.5 3 Este 6 Este 0 -- -- 71
2017-09-26 00:00:00 19 2 Este 8 Este 0 -- -- 70
2017-09-25 23:00:00 19.7 3 Este 6 Sudoeste 0 -- -- 70
2017-09-25 22:00:00 20.2 2 Sudeste 5 Este 0 -- -- 73
2017-09-25 21:00:00 21.6 5 Oeste 14 Oeste 0 -- -- 69
2017-09-25 20:00:00 23.1 6 Sudeste 26 Este 0 -- -- 59
2017-09-25 19:00:00 24 12 Sudeste 31 Este 0 -- -- 57
2017-09-25 18:00:00 24.9 13 Sudeste 32 Sudeste 0 -- -- 58
2017-09-25 17:00:00 26.1 14 Sudeste 27 Sudeste 0 -- -- 52
2017-09-25 16:00:00 26.9 16 Sudeste 41 Sudeste 0 -- -- 47
2017-09-25 15:00:00 28.2 14 Sudeste 28 Este 0 -- -- 46
2017-09-25 14:00:00 27.1 17 Este 31 Este 0 -- -- 42
2017-09-25 13:00:00 26.3 15 Este 30 Este 0 -- -- 46
2017-09-25 12:00:00 26.7 15 Este 32 Este 0 -- -- 45
2017-09-25 11:00:00 26.5 16 Este 27 Sudeste 0 -- -- 45
2017-09-25 10:00:00 24.8 6 Oeste 12 Oeste 0 -- -- 51
2017-09-25 09:00:00 20.2 2 Este 9 Sudeste 0 -- -- 59
2017-09-25 08:00:00 19.6 3 Sudeste 8 Este 0 -- -- 59
2017-09-25 07:00:00 20.4 3 Este 21 Este 0 -- -- 56
2017-09-25 06:00:00 21.7 14 Este 35 Este 0 -- -- 56
2017-09-25 05:00:00 22.5 13 Este 34 Sudeste 0 -- -- 52
2017-09-25 04:00:00 23.4 16 Sudeste 39 Este 0 -- -- 48
2017-09-25 03:00:00 26.1 7 Sudeste 24 Sudeste 0 -- -- 38
2017-09-25 02:00:00 26.3 15 Sudeste 31 Sudeste 0 -- -- 37
2017-09-25 01:00:00 25.3 10 Este 32 Este 0 -- -- 42
2017-09-25 00:00:00 24.8 13 Este 30 Este 0 -- -- 45
2017-09-24 23:00:00 24.7 13 Sudeste 33 Este 0 -- -- 50
2017-09-24 22:00:00 24.7 12 Este 32 Este 0 -- -- 50
2017-09-24 21:00:00 25.1 10 Este 26 Sudeste 0 -- -- 46
2017-09-24 20:00:00 25.6 14 Sudeste 30 Este 0 -- -- 41
2017-09-24 19:00:00 25.7 7 Oeste 14 Oeste 0 -- -- 52
2017-09-24 18:00:00 26 8 Oeste 22 Oeste 0 -- -- 53
2017-09-24 17:00:00 26 6 Oeste 21 Oeste 0 -- -- 53
2017-09-24 16:00:00 25.2 9 Oeste 21 Oeste 0 -- -- 56
2017-09-24 15:00:00 24.2 14 Oeste 36 Sudeste 0 -- -- 58
2017-09-24 14:00:00 24.3 12 Oeste 23 Oeste 0 -- -- 57
2017-09-24 13:00:00 23.2 9 Oeste 19 Oeste 0 -- -- 62
2017-09-24 12:00:00 21.5 8 Oeste 39 Sudeste 0 -- -- 67
2017-09-24 11:00:00 18.1 26 Sudeste 43 Sudeste 0 -- -- 72
2017-09-24 10:00:00 17.3 23 Sudeste 41 Este 0 -- -- 81
2017-09-24 09:00:00 17.3 19 Este 32 Sudeste 0 -- -- 79
2017-09-24 08:00:00 17.9 19 Este 34 Este 0 -- -- 70
2017-09-24 07:00:00 17.7 5 Oeste 35 Nordeste 0 -- -- 73
2017-09-24 06:00:00 21 10 Norte 53 Sudeste 0 -- -- 57
2017-09-24 05:00:00 20.9 23 Este 47 Este 0 -- -- 47
2017-09-24 04:00:00 18.1 19 Este 38 Sudeste 0 -- -- 66
2017-09-24 03:00:00 20.1 21 Este 48 Este 0 -- -- 60
2017-09-24 02:00:00 19 29 Este 49 Sudeste 0 -- -- 58
2017-09-24 01:00:00 20.1 33 Este 59 Este 0 -- -- 43
2017-09-24 00:00:00 22.2 34 Este 55 Este 0 -- -- 31
2017-09-23 23:00:00 22.3 35 Este 55 Este 0 -- -- 31
2017-09-23 22:00:00 22 28 Este 59 Este 0 -- -- 34
2017-09-23 21:00:00 21.9 29 Este 53 Este 0 -- -- 38
2017-09-23 20:00:00 18.8 31 Este 60 Este 0 -- -- 64
2017-09-23 19:00:00 17.2 42 Este 62 Este 0 -- -- 79
2017-09-23 18:00:00 19.1 37 Este 56 Este 0 -- -- 72
2017-09-23 17:00:00 21.9 8 Noroeste 49 Este 0 -- -- 68
2017-09-23 16:00:00 22.2 7 Oeste 39 Sudeste 0 -- -- 64
2017-09-23 15:00:00 22.3 9 Oeste 48 Este 0 -- -- 68
2017-09-23 14:00:00 21.5 15 Este 41 Este 0 -- -- 61
2017-09-23 13:00:00 21.4 28 Este 46 Este 0 -- -- 54
2017-09-23 12:00:00 21.7 12 Oeste 22 Oeste 0 -- -- 69
2017-09-23 11:00:00 21.1 11 Noroeste 24 Este 0 -- -- 70
2017-09-23 10:00:00 18.5 8 Noroeste 15 Oeste 0 -- -- 78
2017-09-23 09:00:00 14.6 4 Noroeste 14 Norte 0 -- -- 85
2017-09-23 08:00:00 15.1 15 Este 40 Este 0 -- -- 78
2017-09-23 07:00:00 14.7 24 Este 45 Este 0 -- -- 85
2017-09-23 06:00:00 15.2 26 Este 51 Este 0 -- -- 84
2017-09-23 05:00:00 15.8 26 Este 59 Nordeste 0 -- -- 84
2017-09-23 04:00:00 15.5 30 Este 56 Este 0 -- -- 87
2017-09-23 03:00:00 16.1 29 Este 68 Este 0 -- -- 83
2017-09-23 02:00:00 16.3 31 Este 68 Este 0 -- -- 82
2017-09-23 01:00:00 16.3 33 Este 57 Este 0 -- -- 83
2017-09-23 00:00:00 16.7 32 Este 62 Este 0 -- -- 80